sensor_id;sensor_type;location;lat;lon;timestamp;P1;durP1;ratioP1;P2;durP2;ratioP2
18789;SDS011;9523;42.650;23.386;2022-12-28T00:00:34;10.40;;;6.87;;
18789;SDS011;9523;42.650;23.386;2022-12-28T00:03:01;9.97;;;6.60;;
18789;SDS011;9523;42.650;23.386;2022-12-28T00:05:28;7.47;;;5.80;;
18789;SDS011;9523;42.650;23.386;2022-12-28T00:07:55;12.17;;;6.73;;
18789;SDS011;9523;42.650;23.386;2022-12-28T00:10:22;9.70;;;6.57;;
18789;SDS011;9523;42.650;23.386;2022-12-28T00:12:50;9.23;;;6.57;;
18789;SDS011;9523;42.650;23.386;2022-12-28T00:15:17;9.37;;;6.90;;
18789;SDS011;9523;42.650;23.386;2022-12-28T00:17:44;9.33;;;6.13;;
18789;SDS011;9523;42.650;23.386;2022-12-28T00:20:11;8.73;;;6.73;;
18789;SDS011;9523;42.650;23.386;2022-12-28T00:22:38;8.47;;;6.47;;
18789;SDS011;9523;42.650;23.386;2022-12-28T00:25:05;10.00;;;6.80;;
18789;SDS011;9523;42.650;23.386;2022-12-28T00:27:33;9.00;;;6.60;;
18789;SDS011;9523;42.650;23.386;2022-12-28T00:30:02;9.63;;;6.57;;
18789;SDS011;9523;42.650;23.386;2022-12-28T00:32:29;8.13;;;6.13;;
18789;SDS011;9523;42.650;23.386;2022-12-28T00:35:01;7.70;;;5.80;;
18789;SDS011;9523;42.650;23.386;2022-12-28T00:37:28;8.90;;;6.43;;
18789;SDS011;9523;42.650;23.386;2022-12-28T00:39:54;9.17;;;6.00;;
18789;SDS011;9523;42.650;23.386;2022-12-28T00:42:21;7.50;;;5.87;;
18789;SDS011;9523;42.650;23.386;2022-12-28T00:44:48;9.57;;;6.50;;
18789;SDS011;9523;42.650;23.386;2022-12-28T00:47:16;11.17;;;6.73;;
18789;SDS011;9523;42.650;23.386;2022-12-28T00:49:43;7.47;;;6.20;;
18789;SDS011;9523;42.650;23.386;2022-12-28T00:52:10;8.77;;;6.70;;
18789;SDS011;9523;42.650;23.386;2022-12-28T00:54:37;9.37;;;6.37;;
18789;SDS011;9523;42.650;23.386;2022-12-28T00:57:04;10.97;;;7.00;;
18789;SDS011;9523;42.650;23.386;2022-12-28T00:59:31;10.40;;;7.27;;
18789;SDS011;9523;42.650;23.386;2022-12-28T01:01:58;10.20;;;7.50;;
18789;SDS011;9523;42.650;23.386;2022-12-28T01:04:26;11.37;;;7.50;;
18789;SDS011;9523;42.650;23.386;2022-12-28T01:06:53;10.90;;;7.77;;
18789;SDS011;9523;42.650;23.386;2022-12-28T01:09:20;12.10;;;8.13;;
18789;SDS011;9523;42.650;23.386;2022-12-28T01:11:47;12.00;;;7.77;;
18789;SDS011;9523;42.650;23.386;2022-12-28T01:14:14;12.37;;;8.10;;
18789;SDS011;9523;42.650;23.386;2022-12-28T01:16:41;11.10;;;8.10;;
18789;SDS011;9523;42.650;23.386;2022-12-28T01:19:17;13.03;;;8.90;;
18789;SDS011;9523;42.650;23.386;2022-12-28T01:21:47;13.17;;;9.47;;
18789;SDS011;9523;42.650;23.386;2022-12-28T01:24:15;11.10;;;9.17;;
18789;SDS011;9523;42.650;23.386;2022-12-28T01:26:42;14.90;;;9.93;;
18789;SDS011;9523;42.650;23.386;2022-12-28T01:29:09;15.00;;;9.53;;
18789;SDS011;9523;42.650;23.386;2022-12-28T01:31:36;14.63;;;9.23;;
18789;SDS011;9523;42.650;23.386;2022-12-28T01:34:03;14.37;;;9.37;;
18789;SDS011;9523;42.650;23.386;2022-12-28T01:36:31;14.83;;;10.13;;
18789;SDS011;9523;42.650;23.386;2022-12-28T01:39:01;14.50;;;10.17;;
18789;SDS011;9523;42.650;23.386;2022-12-28T01:41:29;13.20;;;10.23;;
18789;SDS011;9523;42.650;23.386;2022-12-28T01:47:01;12.70;;;9.67;;
18789;SDS011;9523;42.650;23.386;2022-12-28T01:49:31;13.50;;;9.43;;
18789;SDS011;9523;42.650;23.386;2022-12-28T01:52:03;14.77;;;10.50;;
18789;SDS011;9523;42.650;23.386;2022-12-28T01:54:35;15.53;;;10.13;;
18789;SDS011;9523;42.650;23.386;2022-12-28T01:57:06;16.60;;;11.20;;
18789;SDS011;9523;42.650;23.386;2022-12-28T01:59:35;17.83;;;11.50;;
18789;SDS011;9523;42.650;23.386;2022-12-28T02:02:05;18.57;;;11.80;;
18789;SDS011;9523;42.650;23.386;2022-12-28T02:04:32;14.87;;;10.53;;
18789;SDS011;9523;42.650;23.386;2022-12-28T02:06:59;17.27;;;11.47;;
18789;SDS011;9523;42.650;23.386;2022-12-28T02:09:28;15.70;;;10.67;;
18789;SDS011;9523;42.650;23.386;2022-12-28T02:11:59;16.13;;;11.23;;
18789;SDS011;9523;42.650;23.386;2022-12-28T02:14:26;17.73;;;11.00;;
18789;SDS011;9523;42.650;23.386;2022-12-28T02:16:54;17.53;;;10.63;;
18789;SDS011;9523;42.650;23.386;2022-12-28T02:19:24;16.60;;;11.03;;
18789;SDS011;9523;42.650;23.386;2022-12-28T02:22:08;16.47;;;11.17;;
18789;SDS011;9523;42.650;23.386;2022-12-28T02:25:12;15.83;;;11.30;;
18789;SDS011;9523;42.650;23.386;2022-12-28T02:27:58;14.63;;;10.27;;
18789;SDS011;9523;42.650;23.386;2022-12-28T02:30:36;15.80;;;9.87;;
18789;SDS011;9523;42.650;23.386;2022-12-28T02:33:15;16.80;;;11.20;;
18789;SDS011;9523;42.650;23.386;2022-12-28T02:35:50;17.10;;;11.33;;
18789;SDS011;9523;42.650;23.386;2022-12-28T02:38:24;15.40;;;10.73;;
18789;SDS011;9523;42.650;23.386;2022-12-28T02:40:57;17.43;;;11.00;;
18789;SDS011;9523;42.650;23.386;2022-12-28T02:43:26;16.97;;;10.90;;
18789;SDS011;9523;42.650;23.386;2022-12-28T02:45:55;15.93;;;10.80;;
18789;SDS011;9523;42.650;23.386;2022-12-28T02:48:39;18.03;;;11.80;;
18789;SDS011;9523;42.650;23.386;2022-12-28T02:51:41;17.50;;;11.10;;
18789;SDS011;9523;42.650;23.386;2022-12-28T02:54:24;14.30;;;10.60;;
18789;SDS011;9523;42.650;23.386;2022-12-28T02:57:28;16.23;;;10.83;;
18789;SDS011;9523;42.650;23.386;2022-12-28T03:00:08;16.27;;;10.07;;
18789;SDS011;9523;42.650;23.386;2022-12-28T03:02:41;15.10;;;10.57;;
18789;SDS011;9523;42.650;23.386;2022-12-28T03:05:19;14.77;;;10.17;;
18789;SDS011;9523;42.650;23.386;2022-12-28T03:08:11;14.67;;;9.67;;
18789;SDS011;9523;42.650;23.386;2022-12-28T03:10:45;16.30;;;10.03;;
18789;SDS011;9523;42.650;23.386;2022-12-28T03:13:20;15.03;;;9.80;;
18789;SDS011;9523;42.650;23.386;2022-12-28T03:16:08;14.60;;;9.20;;
18789;SDS011;9523;42.650;23.386;2022-12-28T03:18:40;14.07;;;9.73;;
18789;SDS011;9523;42.650;23.386;2022-12-28T03:21:28;16.93;;;9.97;;
18789;SDS011;9523;42.650;23.386;2022-12-28T03:24:14;14.30;;;9.30;;
18789;SDS011;9523;42.650;23.386;2022-12-28T03:27:01;13.73;;;9.40;;
18789;SDS011;9523;42.650;23.386;2022-12-28T03:29:54;14.97;;;10.30;;
18789;SDS011;9523;42.650;23.386;2022-12-28T03:32:43;16.63;;;10.17;;
18789;SDS011;9523;42.650;23.386;2022-12-28T03:35:13;17.70;;;10.03;;
18789;SDS011;9523;42.650;23.386;2022-12-28T03:37:42;18.43;;;9.83;;
18789;SDS011;9523;42.650;23.386;2022-12-28T03:40:21;12.87;;;9.37;;
18789;SDS011;9523;42.650;23.386;2022-12-28T03:42:53;19.90;;;10.57;;
18789;SDS011;9523;42.650;23.386;2022-12-28T03:45:43;15.53;;;8.87;;
18789;SDS011;9523;42.650;23.386;2022-12-28T03:48:17;13.10;;;9.17;;
18789;SDS011;9523;42.650;23.386;2022-12-28T03:50:46;15.47;;;9.53;;
18789;SDS011;9523;42.650;23.386;2022-12-28T03:53:15;14.33;;;9.57;;
18789;SDS011;9523;42.650;23.386;2022-12-28T03:55:43;14.50;;;8.73;;
18789;SDS011;9523;42.650;23.386;2022-12-28T03:58:10;13.10;;;9.03;;
18789;SDS011;9523;42.650;23.386;2022-12-28T04:00:36;10.80;;;7.93;;
18789;SDS011;9523;42.650;23.386;2022-12-28T04:03:03;13.90;;;8.17;;
18789;SDS011;9523;42.650;23.386;2022-12-28T04:05:30;12.23;;;8.00;;
18789;SDS011;9523;42.650;23.386;2022-12-28T04:07:59;12.30;;;8.20;;
18789;SDS011;9523;42.650;23.386;2022-12-28T04:10:25;10.57;;;7.40;;
18789;SDS011;9523;42.650;23.386;2022-12-28T04:12:53;12.33;;;8.20;;
18789;SDS011;9523;42.650;23.386;2022-12-28T04:15:21;10.23;;;7.17;;
18789;SDS011;9523;42.650;23.386;2022-12-28T04:17:47;11.63;;;7.17;;
18789;SDS011;9523;42.650;23.386;2022-12-28T04:20:16;12.33;;;7.17;;
18789;SDS011;9523;42.650;23.386;2022-12-28T04:22:43;10.57;;;6.90;;
18789;SDS011;9523;42.650;23.386;2022-12-28T04:25:11;11.80;;;7.17;;
18789;SDS011;9523;42.650;23.386;2022-12-28T04:27:38;10.00;;;6.67;;
18789;SDS011;9523;42.650;23.386;2022-12-28T04:30:05;13.07;;;7.57;;
18789;SDS011;9523;42.650;23.386;2022-12-28T04:32:33;14.10;;;7.13;;
18789;SDS011;9523;42.650;23.386;2022-12-28T04:35:00;11.50;;;7.00;;
18789;SDS011;9523;42.650;23.386;2022-12-28T04:37:27;9.30;;;5.93;;
18789;SDS011;9523;42.650;23.386;2022-12-28T04:39:54;9.10;;;6.63;;
18789;SDS011;9523;42.650;23.386;2022-12-28T04:42:23;9.47;;;6.50;;
18789;SDS011;9523;42.650;23.386;2022-12-28T04:44:50;9.80;;;6.40;;
18789;SDS011;9523;42.650;23.386;2022-12-28T04:47:17;9.13;;;6.20;;
18789;SDS011;9523;42.650;23.386;2022-12-28T04:49:44;11.90;;;6.00;;
18789;SDS011;9523;42.650;23.386;2022-12-28T04:52:10;7.93;;;5.83;;
18789;SDS011;9523;42.650;23.386;2022-12-28T04:54:37;12.80;;;6.57;;
18789;SDS011;9523;42.650;23.386;2022-12-28T04:57:04;9.93;;;6.27;;
18789;SDS011;9523;42.650;23.386;2022-12-28T04:59:32;8.37;;;6.00;;
18789;SDS011;9523;42.650;23.386;2022-12-28T05:01:59;8.00;;;5.67;;
18789;SDS011;9523;42.650;23.386;2022-12-28T05:04:26;7.83;;;5.33;;
18789;SDS011;9523;42.650;23.386;2022-12-28T05:06:53;7.80;;;5.50;;
18789;SDS011;9523;42.650;23.386;2022-12-28T05:09:20;7.80;;;5.07;;
18789;SDS011;9523;42.650;23.386;2022-12-28T05:11:49;8.63;;;5.37;;
18789;SDS011;9523;42.650;23.386;2022-12-28T05:14:16;7.30;;;4.90;;
18789;SDS011;9523;42.650;23.386;2022-12-28T05:16:50;6.73;;;5.03;;
18789;SDS011;9523;42.650;23.386;2022-12-28T05:19:16;8.60;;;5.53;;
18789;SDS011;9523;42.650;23.386;2022-12-28T05:21:43;6.97;;;5.23;;
18789;SDS011;9523;42.650;23.386;2022-12-28T05:24:10;8.10;;;5.20;;
18789;SDS011;9523;42.650;23.386;2022-12-28T05:26:37;7.70;;;5.03;;
18789;SDS011;9523;42.650;23.386;2022-12-28T05:29:04;7.80;;;5.40;;
18789;SDS011;9523;42.650;23.386;2022-12-28T05:31:32;8.97;;;6.10;;
18789;SDS011;9523;42.650;23.386;2022-12-28T05:34:01;8.30;;;5.57;;
18789;SDS011;9523;42.650;23.386;2022-12-28T05:36:28;9.10;;;5.20;;
18789;SDS011;9523;42.650;23.386;2022-12-28T05:38:56;7.07;;;5.00;;
18789;SDS011;9523;42.650;23.386;2022-12-28T05:41:23;8.83;;;5.33;;
18789;SDS011;9523;42.650;23.386;2022-12-28T05:43:51;6.93;;;4.90;;
18789;SDS011;9523;42.650;23.386;2022-12-28T05:46:20;7.90;;;5.23;;
18789;SDS011;9523;42.650;23.386;2022-12-28T05:48:48;7.90;;;4.57;;
18789;SDS011;9523;42.650;23.386;2022-12-28T05:51:18;8.83;;;4.83;;
18789;SDS011;9523;42.650;23.386;2022-12-28T05:53:46;6.87;;;4.77;;
18789;SDS011;9523;42.650;23.386;2022-12-28T05:56:14;7.33;;;5.10;;
18789;SDS011;9523;42.650;23.386;2022-12-28T05:58:42;7.47;;;5.37;;
18789;SDS011;9523;42.650;23.386;2022-12-28T06:01:10;5.40;;;4.40;;
18789;SDS011;9523;42.650;23.386;2022-12-28T06:03:38;6.73;;;4.97;;
18789;SDS011;9523;42.650;23.386;2022-12-28T06:06:06;7.37;;;5.10;;
18789;SDS011;9523;42.650;23.386;2022-12-28T06:08:36;8.67;;;5.03;;
18789;SDS011;9523;42.650;23.386;2022-12-28T06:11:04;8.90;;;4.90;;
18789;SDS011;9523;42.650;23.386;2022-12-28T06:13:33;7.90;;;5.20;;
18789;SDS011;9523;42.650;23.386;2022-12-28T06:16:03;8.20;;;5.50;;
18789;SDS011;9523;42.650;23.386;2022-12-28T06:18:31;7.63;;;4.80;;
18789;SDS011;9523;42.650;23.386;2022-12-28T06:21:01;6.63;;;5.00;;
18789;SDS011;9523;42.650;23.386;2022-12-28T06:23:29;8.87;;;4.90;;
18789;SDS011;9523;42.650;23.386;2022-12-28T06:25:58;9.27;;;5.50;;
18789;SDS011;9523;42.650;23.386;2022-12-28T06:28:25;7.20;;;5.17;;
18789;SDS011;9523;42.650;23.386;2022-12-28T06:30:52;10.50;;;6.00;;
18789;SDS011;9523;42.650;23.386;2022-12-28T06:33:25;9.93;;;6.00;;
18789;SDS011;9523;42.650;23.386;2022-12-28T06:35:52;8.47;;;5.77;;
18789;SDS011;9523;42.650;23.386;2022-12-28T06:38:19;8.00;;;5.23;;
18789;SDS011;9523;42.650;23.386;2022-12-28T06:40:46;8.23;;;5.60;;
18789;SDS011;9523;42.650;23.386;2022-12-28T06:43:14;9.43;;;4.90;;
18789;SDS011;9523;42.650;23.386;2022-12-28T06:45:41;12.33;;;5.57;;
18789;SDS011;9523;42.650;23.386;2022-12-28T06:48:08;8.67;;;5.60;;
18789;SDS011;9523;42.650;23.386;2022-12-28T06:50:35;10.60;;;5.47;;
18789;SDS011;9523;42.650;23.386;2022-12-28T06:53:02;7.83;;;5.20;;
18789;SDS011;9523;42.650;23.386;2022-12-28T06:55:29;8.90;;;5.27;;
18789;SDS011;9523;42.650;23.386;2022-12-28T06:57:56;10.03;;;5.13;;
18789;SDS011;9523;42.650;23.386;2022-12-28T07:00:24;8.70;;;5.70;;
18789;SDS011;9523;42.650;23.386;2022-12-28T07:02:55;7.93;;;5.00;;
18789;SDS011;9523;42.650;23.386;2022-12-28T07:05:23;9.77;;;5.30;;
18789;SDS011;9523;42.650;23.386;2022-12-28T07:07:51;10.67;;;6.00;;
18789;SDS011;9523;42.650;23.386;2022-12-28T07:10:18;9.27;;;5.97;;
18789;SDS011;9523;42.650;23.386;2022-12-28T07:12:45;8.97;;;6.07;;
18789;SDS011;9523;42.650;23.386;2022-12-28T07:15:12;12.47;;;6.13;;
18789;SDS011;9523;42.650;23.386;2022-12-28T07:17:40;9.87;;;6.37;;
18789;SDS011;9523;42.650;23.386;2022-12-28T07:20:07;9.23;;;6.13;;
18789;SDS011;9523;42.650;23.386;2022-12-28T07:22:36;9.57;;;6.07;;
18789;SDS011;9523;42.650;23.386;2022-12-28T07:25:03;8.40;;;5.90;;
18789;SDS011;9523;42.650;23.386;2022-12-28T07:27:30;9.07;;;6.87;;
18789;SDS011;9523;42.650;23.386;2022-12-28T07:29:57;11.83;;;7.40;;
18789;SDS011;9523;42.650;23.386;2022-12-28T07:32:24;10.80;;;6.53;;
18789;SDS011;9523;42.650;23.386;2022-12-28T07:34:52;10.73;;;6.73;;
18789;SDS011;9523;42.650;23.386;2022-12-28T07:37:19;8.53;;;6.50;;
18789;SDS011;9523;42.650;23.386;2022-12-28T07:39:46;10.63;;;7.10;;
18789;SDS011;9523;42.650;23.386;2022-12-28T07:42:12;11.80;;;7.07;;
18789;SDS011;9523;42.650;23.386;2022-12-28T07:44:39;14.23;;;8.87;;
18789;SDS011;9523;42.650;23.386;2022-12-28T07:47:10;14.33;;;9.00;;
18789;SDS011;9523;42.650;23.386;2022-12-28T07:49:37;17.13;;;9.00;;
18789;SDS011;9523;42.650;23.386;2022-12-28T07:52:08;15.23;;;8.43;;
18789;SDS011;9523;42.650;23.386;2022-12-28T07:54:35;15.80;;;8.17;;
18789;SDS011;9523;42.650;23.386;2022-12-28T07:57:02;12.60;;;7.33;;
18789;SDS011;9523;42.650;23.386;2022-12-28T07:59:29;11.93;;;7.97;;
18789;SDS011;9523;42.650;23.386;2022-12-28T08:01:57;12.93;;;7.97;;
18789;SDS011;9523;42.650;23.386;2022-12-28T08:04:24;12.87;;;8.07;;
18789;SDS011;9523;42.650;23.386;2022-12-28T08:06:51;15.20;;;8.30;;
18789;SDS011;9523;42.650;23.386;2022-12-28T08:09:19;12.47;;;7.70;;
18789;SDS011;9523;42.650;23.386;2022-12-28T08:11:47;11.67;;;8.33;;
18789;SDS011;9523;42.650;23.386;2022-12-28T08:14:14;15.63;;;8.27;;
18789;SDS011;9523;42.650;23.386;2022-12-28T08:16:41;12.53;;;7.93;;
18789;SDS011;9523;42.650;23.386;2022-12-28T08:19:09;12.03;;;8.17;;
18789;SDS011;9523;42.650;23.386;2022-12-28T08:21:36;12.60;;;8.27;;
18789;SDS011;9523;42.650;23.386;2022-12-28T08:24:08;11.47;;;8.33;;
18789;SDS011;9523;42.650;23.386;2022-12-28T08:26:39;13.33;;;8.53;;
18789;SDS011;9523;42.650;23.386;2022-12-28T08:29:07;10.57;;;7.77;;
18789;SDS011;9523;42.650;23.386;2022-12-28T08:31:37;11.97;;;7.90;;
18789;SDS011;9523;42.650;23.386;2022-12-28T08:34:07;11.50;;;8.30;;
18789;SDS011;9523;42.650;23.386;2022-12-28T08:36:37;13.57;;;8.03;;
18789;SDS011;9523;42.650;23.386;2022-12-28T08:39:05;14.47;;;8.80;;
18789;SDS011;9523;42.650;23.386;2022-12-28T08:41:32;12.37;;;8.30;;
18789;SDS011;9523;42.650;23.386;2022-12-28T08:44:00;17.23;;;9.37;;
18789;SDS011;9523;42.650;23.386;2022-12-28T08:46:28;13.77;;;9.23;;
18789;SDS011;9523;42.650;23.386;2022-12-28T08:48:56;13.27;;;8.43;;
18789;SDS011;9523;42.650;23.386;2022-12-28T08:51:25;12.37;;;8.27;;
18789;SDS011;9523;42.650;23.386;2022-12-28T08:53:53;14.43;;;8.73;;
18789;SDS011;9523;42.650;23.386;2022-12-28T08:56:20;12.07;;;8.47;;
18789;SDS011;9523;42.650;23.386;2022-12-28T08:58:49;13.73;;;8.33;;
18789;SDS011;9523;42.650;23.386;2022-12-28T09:01:18;13.77;;;9.53;;
18789;SDS011;9523;42.650;23.386;2022-12-28T09:03:47;14.30;;;9.50;;
18789;SDS011;9523;42.650;23.386;2022-12-28T09:06:15;13.67;;;9.50;;
18789;SDS011;9523;42.650;23.386;2022-12-28T09:08:44;15.33;;;8.97;;
18789;SDS011;9523;42.650;23.386;2022-12-28T09:11:14;13.70;;;9.17;;
18789;SDS011;9523;42.650;23.386;2022-12-28T09:13:41;15.60;;;8.93;;
18789;SDS011;9523;42.650;23.386;2022-12-28T09:16:11;14.80;;;9.37;;
18789;SDS011;9523;42.650;23.386;2022-12-28T09:18:40;12.37;;;8.73;;
18789;SDS011;9523;42.650;23.386;2022-12-28T09:21:09;13.90;;;8.67;;
18789;SDS011;9523;42.650;23.386;2022-12-28T09:23:38;16.07;;;9.23;;
18789;SDS011;9523;42.650;23.386;2022-12-28T09:26:06;12.97;;;8.80;;
18789;SDS011;9523;42.650;23.386;2022-12-28T09:28:34;15.77;;;10.13;;
18789;SDS011;9523;42.650;23.386;2022-12-28T09:31:02;14.47;;;9.23;;
18789;SDS011;9523;42.650;23.386;2022-12-28T09:33:29;13.77;;;8.60;;
18789;SDS011;9523;42.650;23.386;2022-12-28T09:36:15;12.33;;;8.20;;
18789;SDS011;9523;42.650;23.386;2022-12-28T09:38:43;14.87;;;8.20;;
18789;SDS011;9523;42.650;23.386;2022-12-28T09:41:11;13.27;;;7.80;;
18789;SDS011;9523;42.650;23.386;2022-12-28T09:43:39;12.63;;;6.90;;
18789;SDS011;9523;42.650;23.386;2022-12-28T09:46:07;12.83;;;7.90;;
18789;SDS011;9523;42.650;23.386;2022-12-28T09:48:36;12.03;;;6.87;;
18789;SDS011;9523;42.650;23.386;2022-12-28T09:51:06;9.73;;;7.00;;
18789;SDS011;9523;42.650;23.386;2022-12-28T09:53:39;9.33;;;6.47;;
18789;SDS011;9523;42.650;23.386;2022-12-28T09:56:12;10.77;;;7.60;;
18789;SDS011;9523;42.650;23.386;2022-12-28T09:58:47;12.00;;;7.23;;
18789;SDS011;9523;42.650;23.386;2022-12-28T10:01:15;10.77;;;6.90;;
18789;SDS011;9523;42.650;23.386;2022-12-28T10:03:48;10.13;;;6.73;;
18789;SDS011;9523;42.650;23.386;2022-12-28T10:06:16;9.73;;;6.70;;
18789;SDS011;9523;42.650;23.386;2022-12-28T10:08:48;8.27;;;6.07;;
18789;SDS011;9523;42.650;23.386;2022-12-28T10:11:17;9.70;;;6.20;;
18789;SDS011;9523;42.650;23.386;2022-12-28T10:13:46;10.77;;;6.30;;
18789;SDS011;9523;42.650;23.386;2022-12-28T10:16:18;12.40;;;7.00;;
18789;SDS011;9523;42.650;23.386;2022-12-28T10:18:46;11.20;;;6.67;;
18789;SDS011;9523;42.650;23.386;2022-12-28T10:21:14;10.87;;;7.47;;
18789;SDS011;9523;42.650;23.386;2022-12-28T10:23:44;10.20;;;6.60;;
18789;SDS011;9523;42.650;23.386;2022-12-28T10:26:17;10.90;;;6.30;;
18789;SDS011;9523;42.650;23.386;2022-12-28T10:28:46;11.17;;;6.53;;
18789;SDS011;9523;42.650;23.386;2022-12-28T10:31:14;12.73;;;7.67;;
18789;SDS011;9523;42.650;23.386;2022-12-28T10:33:48;11.07;;;7.27;;
18789;SDS011;9523;42.650;23.386;2022-12-28T10:36:16;12.10;;;7.43;;
18789;SDS011;9523;42.650;23.386;2022-12-28T10:38:48;11.80;;;7.10;;
18789;SDS011;9523;42.650;23.386;2022-12-28T10:41:21;10.13;;;7.00;;
18789;SDS011;9523;42.650;23.386;2022-12-28T10:44:04;14.70;;;8.57;;
18789;SDS011;9523;42.650;23.386;2022-12-28T10:46:48;14.67;;;8.03;;
18789;SDS011;9523;42.650;23.386;2022-12-28T10:49:20;12.53;;;7.17;;
18789;SDS011;9523;42.650;23.386;2022-12-28T10:51:57;12.13;;;7.50;;
18789;SDS011;9523;42.650;23.386;2022-12-28T10:54:29;10.70;;;7.50;;
18789;SDS011;9523;42.650;23.386;2022-12-28T10:56:58;11.63;;;7.33;;
18789;SDS011;9523;42.650;23.386;2022-12-28T10:59:28;10.67;;;7.37;;
18789;SDS011;9523;42.650;23.386;2022-12-28T11:04:52;13.33;;;8.77;;
18789;SDS011;9523;42.650;23.386;2022-12-28T11:07:28;14.50;;;8.17;;
18789;SDS011;9523;42.650;23.386;2022-12-28T11:10:13;14.13;;;8.50;;
18789;SDS011;9523;42.650;23.386;2022-12-28T11:12:42;12.67;;;8.50;;
18789;SDS011;9523;42.650;23.386;2022-12-28T11:15:12;54.93;;;26.00;;
18789;SDS011;9523;42.650;23.386;2022-12-28T11:17:41;28.03;;;13.17;;
18789;SDS011;9523;42.650;23.386;2022-12-28T11:20:12;64.00;;;27.00;;
18789;SDS011;9523;42.650;23.386;2022-12-28T11:22:43;18.80;;;11.07;;
18789;SDS011;9523;42.650;23.386;2022-12-28T11:25:14;33.17;;;19.40;;
18789;SDS011;9523;42.650;23.386;2022-12-28T11:27:43;25.90;;;13.53;;
18789;SDS011;9523;42.650;23.386;2022-12-28T11:30:12;33.20;;;17.83;;
18789;SDS011;9523;42.650;23.386;2022-12-28T11:32:42;28.97;;;14.97;;
18789;SDS011;9523;42.650;23.386;2022-12-28T11:35:15;22.67;;;13.47;;
18789;SDS011;9523;42.650;23.386;2022-12-28T11:37:52;21.83;;;11.70;;
18789;SDS011;9523;42.650;23.386;2022-12-28T11:46:06;20.73;;;11.13;;
18789;SDS011;9523;42.650;23.386;2022-12-28T11:48:56;19.33;;;12.53;;
18789;SDS011;9523;42.650;23.386;2022-12-28T11:51:25;28.10;;;13.40;;
18789;SDS011;9523;42.650;23.386;2022-12-28T11:53:54;24.50;;;14.43;;
18789;SDS011;9523;42.650;23.386;2022-12-28T11:56:25;19.13;;;11.07;;
18789;SDS011;9523;42.650;23.386;2022-12-28T11:59:20;16.20;;;11.10;;
18789;SDS011;9523;42.650;23.386;2022-12-28T12:01:51;19.70;;;11.30;;
18789;SDS011;9523;42.650;23.386;2022-12-28T12:04:28;17.73;;;10.63;;
18789;SDS011;9523;42.650;23.386;2022-12-28T12:12:54;85.20;;;40.03;;
18789;SDS011;9523;42.650;23.386;2022-12-28T12:15:23;40.90;;;22.90;;
18789;SDS011;9523;42.650;23.386;2022-12-28T12:17:58;51.43;;;26.10;;
18789;SDS011;9523;42.650;23.386;2022-12-28T12:20:41;24.10;;;14.23;;
18789;SDS011;9523;42.650;23.386;2022-12-28T12:23:17;18.97;;;11.93;;
18789;SDS011;9523;42.650;23.386;2022-12-28T12:25:48;17.20;;;12.03;;
18789;SDS011;9523;42.650;23.386;2022-12-28T12:28:26;21.63;;;12.00;;
18789;SDS011;9523;42.650;23.386;2022-12-28T12:31:01;18.03;;;11.60;;
18789;SDS011;9523;42.650;23.386;2022-12-28T12:33:33;19.50;;;12.20;;
18789;SDS011;9523;42.650;23.386;2022-12-28T12:36:06;22.17;;;12.63;;
18789;SDS011;9523;42.650;23.386;2022-12-28T12:38:52;20.47;;;12.90;;
18789;SDS011;9523;42.650;23.386;2022-12-28T12:41:40;19.30;;;12.00;;
18789;SDS011;9523;42.650;23.386;2022-12-28T12:44:21;21.83;;;12.53;;
18789;SDS011;9523;42.650;23.386;2022-12-28T12:47:17;19.67;;;11.80;;
18789;SDS011;9523;42.650;23.386;2022-12-28T12:52:52;21.20;;;11.10;;
18789;SDS011;9523;42.650;23.386;2022-12-28T12:55:31;19.20;;;11.90;;
18789;SDS011;9523;42.650;23.386;2022-12-28T12:58:08;20.27;;;11.43;;
18789;SDS011;9523;42.650;23.386;2022-12-28T13:00:48;19.20;;;11.63;;
18789;SDS011;9523;42.650;23.386;2022-12-28T13:03:31;18.87;;;11.83;;
18789;SDS011;9523;42.650;23.386;2022-12-28T13:06:05;17.77;;;11.13;;
18789;SDS011;9523;42.650;23.386;2022-12-28T13:08:34;18.00;;;11.67;;
18789;SDS011;9523;42.650;23.386;2022-12-28T13:11:03;21.50;;;11.60;;
18789;SDS011;9523;42.650;23.386;2022-12-28T13:13:35;17.33;;;11.20;;
18789;SDS011;9523;42.650;23.386;2022-12-28T13:16:07;17.33;;;12.00;;
18789;SDS011;9523;42.650;23.386;2022-12-28T13:18:36;22.37;;;14.03;;
18789;SDS011;9523;42.650;23.386;2022-12-28T13:21:03;28.90;;;17.50;;
18789;SDS011;9523;42.650;23.386;2022-12-28T13:23:32;24.00;;;15.97;;
18789;SDS011;9523;42.650;23.386;2022-12-28T13:26:08;23.63;;;13.80;;
18789;SDS011;9523;42.650;23.386;2022-12-28T13:28:38;23.60;;;14.20;;
18789;SDS011;9523;42.650;23.386;2022-12-28T13:31:16;19.37;;;12.00;;
18789;SDS011;9523;42.650;23.386;2022-12-28T13:33:52;15.20;;;10.93;;
18789;SDS011;9523;42.650;23.386;2022-12-28T13:36:20;15.57;;;10.50;;
18789;SDS011;9523;42.650;23.386;2022-12-28T13:41:30;20.50;;;11.97;;
18789;SDS011;9523;42.650;23.386;2022-12-28T13:46:54;18.43;;;10.73;;
18789;SDS011;9523;42.650;23.386;2022-12-28T13:49:25;18.40;;;11.50;;
18789;SDS011;9523;42.650;23.386;2022-12-28T13:51:56;22.23;;;12.23;;
18789;SDS011;9523;42.650;23.386;2022-12-28T13:54:23;19.10;;;11.10;;
18789;SDS011;9523;42.650;23.386;2022-12-28T13:56:56;17.73;;;11.50;;
18789;SDS011;9523;42.650;23.386;2022-12-28T13:59:23;19.50;;;12.27;;
18789;SDS011;9523;42.650;23.386;2022-12-28T14:01:50;17.60;;;10.97;;
18789;SDS011;9523;42.650;23.386;2022-12-28T14:04:19;16.53;;;11.17;;
18789;SDS011;9523;42.650;23.386;2022-12-28T14:06:52;17.10;;;11.47;;
18789;SDS011;9523;42.650;23.386;2022-12-28T14:09:20;18.17;;;11.90;;
18789;SDS011;9523;42.650;23.386;2022-12-28T14:11:47;17.10;;;11.73;;
18789;SDS011;9523;42.650;23.386;2022-12-28T14:14:15;22.60;;;12.03;;
18789;SDS011;9523;42.650;23.386;2022-12-28T14:16:43;20.13;;;11.70;;
18789;SDS011;9523;42.650;23.386;2022-12-28T14:19:12;18.00;;;11.43;;
18789;SDS011;9523;42.650;23.386;2022-12-28T14:21:40;19.03;;;11.27;;
18789;SDS011;9523;42.650;23.386;2022-12-28T14:24:09;22.97;;;13.77;;
18789;SDS011;9523;42.650;23.386;2022-12-28T14:26:37;25.37;;;17.33;;
18789;SDS011;9523;42.650;23.386;2022-12-28T14:29:11;35.50;;;17.70;;
18789;SDS011;9523;42.650;23.386;2022-12-28T14:31:41;47.00;;;23.33;;
18789;SDS011;9523;42.650;23.386;2022-12-28T14:34:19;73.20;;;34.47;;
18789;SDS011;9523;42.650;23.386;2022-12-28T14:36:48;97.37;;;45.20;;
18789;SDS011;9523;42.650;23.386;2022-12-28T14:39:23;28.83;;;15.37;;
18789;SDS011;9523;42.650;23.386;2022-12-28T14:41:53;25.20;;;13.73;;
18789;SDS011;9523;42.650;23.386;2022-12-28T14:44:29;21.60;;;11.27;;
18789;SDS011;9523;42.650;23.386;2022-12-28T14:46:58;16.73;;;10.93;;
18789;SDS011;9523;42.650;23.386;2022-12-28T14:49:33;17.80;;;10.63;;
18789;SDS011;9523;42.650;23.386;2022-12-28T14:55:23;16.90;;;10.43;;
18789;SDS011;9523;42.650;23.386;2022-12-28T14:57:56;20.53;;;11.30;;
18789;SDS011;9523;42.650;23.386;2022-12-28T15:00:27;16.90;;;10.93;;
18789;SDS011;9523;42.650;23.386;2022-12-28T15:02:56;18.10;;;10.93;;
18789;SDS011;9523;42.650;23.386;2022-12-28T15:05:43;20.10;;;11.40;;
18789;SDS011;9523;42.650;23.386;2022-12-28T15:08:11;18.17;;;11.30;;
18789;SDS011;9523;42.650;23.386;2022-12-28T15:10:39;19.77;;;11.30;;
18789;SDS011;9523;42.650;23.386;2022-12-28T15:13:11;19.23;;;11.60;;
18789;SDS011;9523;42.650;23.386;2022-12-28T15:15:38;19.10;;;11.70;;
18789;SDS011;9523;42.650;23.386;2022-12-28T15:18:05;23.90;;;13.47;;
18789;SDS011;9523;42.650;23.386;2022-12-28T15:20:34;19.27;;;12.13;;
18789;SDS011;9523;42.650;23.386;2022-12-28T15:23:03;17.07;;;11.50;;